AirNav   TITAN Aviation Fuels
 
 1502 users online  

05MI Oakwood Heritage Hospital Heliport
Taylor, Michigan, USA

GOING TO TAYLOR?


FAA INFORMATION EFFECTIVE 19 MAY 2022

Location

FAA Identifier: 05MI
Lat/Long: 42-14-11.0000N 083-16-35.0000W
42-14.183333N 083-16.583333W
42.2363889,-83.2763889
(estimated)
Elevation: 621 ft. / 189 m (estimated)
From city: 1 mile SW of TAYLOR, MI
Time zone: UTC -4 (UTC -5 during Standard Time)
Zip code: 48180

Heliport Operations

Heliport use: Private use, MEDICAL USE.
Activation date: 01/2011
Control tower: no
ARTCC: CLEVELAND CENTER
FSS: LANSING FLIGHT SERVICE STATION
Attendance: UNATNDD
Wind indicator: yes
Segmented circle: no
Lights: ACTVT PERIMETER LGTS - CALL 313-295-5555.

Heliport Communications

CTAF: 122.9
WX ASOS at DTW (4 nm SW): PHONE 734-955-5015
WX AWOS-3 at ONZ (10 nm SE): 119.675 (734-692-9686)
WX ASOS at YIP (11 nm W): PHONE 734-961-6843
WX ASOS at DET (16 nm NE): PHONE 313-371-9696
WX AWOS-3 at VLL (19 nm N): 119.475 (248-288-4649)
WX AWOS-3 at TTF (19 nm S): 119.075 (734-384-0259)

Nearby radio navigation aids

VOR radial/distance  VOR name  Freq  Var
DXOr077/4.2DETROIT VOR/DME113.4006W
CRLr038/13.9CARLETON VOR/DME115.7003W
SVMr129/17.5SALEM VORTAC114.3003W

 
NDB name  Hdg/Dist  Freq  Var  ID
GROSSE ILE333/9.841907WRYS .-. -.-- ...
TECUMSEH072/29.723906WTCU - -.-. ..-

Heliport Services

Runway Information

Helipad H1

Dimensions: 42 x 30 ft. / 13 x 9 m
Surface: concrete, in fair condition
Runway edge lights: PERI
Latitude: 42-14.183333N
Longitude: 083-16.583333W
Elevation: 621.0 ft.
Traffic pattern: leftleft

Heliport Ownership and Management from official FAA records

Ownership: Privately-owned
Owner: OAKWOOD HERITAGE HOSPITAL
10000 TELEGRAPH RD
TAYLOR, MI 48180-3330
Phone 313-295-5000
Manager: WHITNEY GUERBER
10000 TELEGRAPH RD
TAYLOR, MI 48180-3330
Phone 313-375-7069
DIR OF SCTY/SAFETY.

Additional Remarks

+175 FT UNLGTD TWR, 594 FT NW.
FOR CD CTC DETROIT APCH AT 734-955-1404.

Instrument Procedures

There are no published instrument procedures at 05MI.

Some nearby airports with instrument procedures:

KDTW - Detroit Metro Wayne County Airport (4 nm SW)
KONZ - Grosse Ile Municipal Airport (10 nm SE)
1D2 - Canton-Plymouth-Mettetal Airport (10 nm NW)
KYIP - Willow Run Airport (11 nm W)
KDET - Coleman A Young Municipal Airport (16 nm NE)
KVLL - Oakland/Troy Airport (19 nm N)
KTTF - Custer Airport (19 nm S)
 
Loc | Ops | Rwys | IFR | FBO | Links
Com | Nav | Svcs | Stats | Notes
Aerial photo
No photo
 
Sectional chart

 
Airport distance calculator
Flying to Oakwood Heritage Hospital Heliport? Find the distance to fly.

From to 05MI

Sunrise and sunset
Times for 26-May-2022
 Local
(UTC-4)
 Zulu
(UTC)
Morning civil twilight05:3009:30
Sunrise06:0410:04
Sunset20:5700:57
Evening civil twilight21:3001:30

Current date and time
Zulu (UTC)  26-May-2022 20:22:34
Local (UTC-4)  26-May-2022 16:22:34
 
METAR
KDTW 
3nm W 
261953Z 21011KT 3SM R03R/4500VP6000FT -RA BR SCT012 BKN025 OVC060 21/19 A2985 RMK AO2 SLP105 P0006 T02060194
KONZ 
10nm SE 
261955Z AUTO 22006KT 5SM BR SCT006 BKN023 OVC039 20/20 A2985 RMK AO2 T01960196 P0014
KYIP 
11nm W 
261953Z 20010KT 10SM -RA SCT024 BKN037 OVC050 23/18 A2985 RMK AO2 RAB18 SLP102 P0000 T02330178 $
CYQG 
14nm E 
261959Z AUTO 22016G24KT 6SM -RA BR FEW007 SCT022 BKN044 OVC060 19/19 A2986 RMK PCPN 2.0MM PAST HR SLP111 DENSITY ALT 1400FT
KDET 
15nm NE 
262004Z 21014KT 2SM -RA BR SCT010 BKN055 OVC075 21/18 A2985 RMK AO2 P0003 T02060183
KVLL 
19nm N 
261955Z AUTO 17010G15KT 4SM -RA SCT017 BKN040 OVC060 21/18 A2986 RMK AO2 T02110182
KTTF 
19nm S 
261955Z AUTO 19009KT 10SM BKN012 OVC017 21/20 A2984 RMK AO2 T02100201 P0001
TAF
KDTW 
3nm W 
261731Z 2618/2724 19012G20KT 6SM -SHRA BKN025 OVC050 TEMPO 2621/2624 3SM TSRA BR OVC030CB FM270100 18006KT P6SM OVC025 FM270800 20004KT 5SM BR SCT015 BKN025 FM271400 20006KT 6SM BR OVC020
KYIP 
11nm W 
261728Z 2618/2718 19012G20KT 6SM -SHRA SCT025 BKN035 TEMPO 2621/2624 3SM TSRA BR OVC030CB FM270100 18006KT P6SM OVC025 FM270800 20004KT 5SM BR SCT015 BKN025 FM271400 22006KT 6SM BR OVC020
CYQG 
14nm E 
261740Z 2618/2718 20020G30KT P6SM SCT020 BKN130 TEMPO 2618/2620 BKN020 FM262000 18015G25KT P6SM BKN025 TEMPO 2620/2704 5SM -SHRA BR OVC015 PROB30 2622/2704 VRB20G30KT 2SM TSRA BR OVC015CB FM270400 17010KT P6SM -SHRA OVC015 PROB30 2704/2709 VRB15G25KT 2SM TSRA BR BKN008 OVC015CB FM271500 22012G22KT P6SM BKN020 FM271700 22012G22KT P6SM BKN025 RMK FCST BASED ON AUTO OBS. NXT FCST BY 270000Z
KDET 
15nm NE 
261732Z 2618/2718 19012G20KT 6SM -SHRA BKN025 OVC050 TEMPO 2621/2624 3SM TSRA BR OVC030CB FM270100 18006KT P6SM OVC025 FM270800 20004KT 5SM BR SCT015 BKN025 FM271400 22006KT 6SM BR OVC020
NOTAMs
Click for the latest NOTAMs
NOTAMs are issued by the DoD/FAA and will open in a separate window not controlled by AirNav.

 

 
 

Would you like to see your business listed on this page?

 If your business provides an interesting product or service to pilots, flight crews, aircraft, or users of the Oakwood Heritage Hospital Heliport, you should consider listing it here.  To start the listing process, click on the button below
 
Add a business
 

Other Pages about Oakwood Heritage Hospital Heliport

Update a link
 
Copyright © AirNav, LLC. All rights reserved. Privacy Policy  Contact